sensor_id;sensor_type;location;lat;lon;timestamp;temperature;humidity
40534;DHT22;26233;51.894;10.192;2022-12-26T00:00:41;13.60;57.20
40534;DHT22;26233;51.894;10.192;2022-12-26T00:03:08;13.60;57.10
40534;DHT22;26233;51.894;10.192;2022-12-26T00:05:36;13.60;57.20
40534;DHT22;26233;51.894;10.192;2022-12-26T00:08:04;13.60;57.10
40534;DHT22;26233;51.894;10.192;2022-12-26T00:10:32;13.60;57.10
40534;DHT22;26233;51.894;10.192;2022-12-26T00:12:59;13.60;57.00
40534;DHT22;26233;51.894;10.192;2022-12-26T00:15:26;13.60;56.90
40534;DHT22;26233;51.894;10.192;2022-12-26T00:17:53;13.50;56.90
40534;DHT22;26233;51.894;10.192;2022-12-26T00:20:20;13.50;56.90
40534;DHT22;26233;51.894;10.192;2022-12-26T00:22:47;13.40;56.80
40534;DHT22;26233;51.894;10.192;2022-12-26T00:25:16;13.40;56.90
40534;DHT22;26233;51.894;10.192;2022-12-26T00:27:43;13.40;57.00
40534;DHT22;26233;51.894;10.192;2022-12-26T00:30:10;13.30;57.00
40534;DHT22;26233;51.894;10.192;2022-12-26T00:32:38;13.30;57.10
40534;DHT22;26233;51.894;10.192;2022-12-26T00:35:05;13.20;57.10
40534;DHT22;26233;51.894;10.192;2022-12-26T00:37:33;13.20;57.10
40534;DHT22;26233;51.894;10.192;2022-12-26T00:40:00;13.20;57.30
40534;DHT22;26233;51.894;10.192;2022-12-26T00:42:28;13.20;57.30
40534;DHT22;26233;51.894;10.192;2022-12-26T00:44:55;13.20;57.40
40534;DHT22;26233;51.894;10.192;2022-12-26T00:47:22;13.10;57.30
40534;DHT22;26233;51.894;10.192;2022-12-26T00:49:49;13.10;57.40
40534;DHT22;26233;51.894;10.192;2022-12-26T00:52:16;13.10;57.40
40534;DHT22;26233;51.894;10.192;2022-12-26T00:54:44;13.10;57.50
40534;DHT22;26233;51.894;10.192;2022-12-26T00:57:11;13.10;57.60
40534;DHT22;26233;51.894;10.192;2022-12-26T00:59:39;13.10;57.60
40534;DHT22;26233;51.894;10.192;2022-12-26T01:02:06;13.10;57.60
40534;DHT22;26233;51.894;10.192;2022-12-26T01:04:53;13.10;57.60
40534;DHT22;26233;51.894;10.192;2022-12-26T01:07:20;13.00;57.50
40534;DHT22;26233;51.894;10.192;2022-12-26T01:09:47;13.00;57.50
40534;DHT22;26233;51.894;10.192;2022-12-26T01:12:14;13.00;57.50
40534;DHT22;26233;51.894;10.192;2022-12-26T01:14:43;13.00;57.60
40534;DHT22;26233;51.894;10.192;2022-12-26T01:17:13;13.00;57.70
40534;DHT22;26233;51.894;10.192;2022-12-26T01:19:40;13.00;57.70
40534;DHT22;26233;51.894;10.192;2022-12-26T01:22:07;13.00;57.70
40534;DHT22;26233;51.894;10.192;2022-12-26T01:24:34;13.00;57.80
40534;DHT22;26233;51.894;10.192;2022-12-26T01:27:01;12.90;58.30
40534;DHT22;26233;51.894;10.192;2022-12-26T01:29:30;12.90;57.70
40534;DHT22;26233;51.894;10.192;2022-12-26T01:31:59;12.90;57.80
40534;DHT22;26233;51.894;10.192;2022-12-26T01:34:26;12.90;57.80
40534;DHT22;26233;51.894;10.192;2022-12-26T01:36:53;12.90;57.80
40534;DHT22;26233;51.894;10.192;2022-12-26T01:39:24;12.90;57.80
40534;DHT22;26233;51.894;10.192;2022-12-26T01:41:51;12.90;57.80
40534;DHT22;26233;51.894;10.192;2022-12-26T01:44:57;12.90;57.80
40534;DHT22;26233;51.894;10.192;2022-12-26T01:47:37;12.90;57.90
40534;DHT22;26233;51.894;10.192;2022-12-26T01:50:16;12.90;57.90
40534;DHT22;26233;51.894;10.192;2022-12-26T01:52:50;12.90;57.80
40534;DHT22;26233;51.894;10.192;2022-12-26T01:55:20;12.80;57.70
40534;DHT22;26233;51.894;10.192;2022-12-26T01:57:53;12.90;57.90
40534;DHT22;26233;51.894;10.192;2022-12-26T02:00:21;12.80;57.80
40534;DHT22;26233;51.894;10.192;2022-12-26T02:02:50;12.80;57.80
40534;DHT22;26233;51.894;10.192;2022-12-26T02:05:35;12.80;57.90
40534;DHT22;26233;51.894;10.192;2022-12-26T02:08:06;12.80;57.90
40534;DHT22;26233;51.894;10.192;2022-12-26T02:10:37;12.80;58.00
40534;DHT22;26233;51.894;10.192;2022-12-26T02:13:09;12.80;58.00
40534;DHT22;26233;51.894;10.192;2022-12-26T02:15:38;12.80;58.60
40534;DHT22;26233;51.894;10.192;2022-12-26T02:18:07;12.70;57.90
40534;DHT22;26233;51.894;10.192;2022-12-26T02:20:42;12.70;57.90
40534;DHT22;26233;51.894;10.192;2022-12-26T02:23:30;12.80;58.00
40534;DHT22;26233;51.894;10.192;2022-12-26T02:27:01;12.70;58.00
40534;DHT22;26233;51.894;10.192;2022-12-26T02:33:07;12.70;58.00
40534;DHT22;26233;51.894;10.192;2022-12-26T02:35:50;12.70;58.00
40534;DHT22;26233;51.894;10.192;2022-12-26T02:38:33;12.70;57.90
40534;DHT22;26233;51.894;10.192;2022-12-26T02:41:10;12.70;57.90
40534;DHT22;26233;51.894;10.192;2022-12-26T02:43:53;12.70;58.00
40534;DHT22;26233;51.894;10.192;2022-12-26T02:46:53;12.70;58.00
40534;DHT22;26233;51.894;10.192;2022-12-26T02:49:39;12.60;57.90
40534;DHT22;26233;51.894;10.192;2022-12-26T02:52:40;12.60;57.90
40534;DHT22;26233;51.894;10.192;2022-12-26T02:55:30;12.60;57.90
40534;DHT22;26233;51.894;10.192;2022-12-26T02:58:19;12.60;57.90
40534;DHT22;26233;51.894;10.192;2022-12-26T03:01:13;12.60;58.00
40534;DHT22;26233;51.894;10.192;2022-12-26T03:04:09;12.60;58.00
40534;DHT22;26233;51.894;10.192;2022-12-26T03:06:58;12.60;58.00
40534;DHT22;26233;51.894;10.192;2022-12-26T03:09:46;12.60;58.00
40534;DHT22;26233;51.894;10.192;2022-12-26T03:12:41;12.60;58.00
40534;DHT22;26233;51.894;10.192;2022-12-26T03:15:31;12.60;58.00
40534;DHT22;26233;51.894;10.192;2022-12-26T03:18:21;12.50;57.90
40534;DHT22;26233;51.894;10.192;2022-12-26T03:20:49;12.50;58.00
40534;DHT22;26233;51.894;10.192;2022-12-26T03:23:17;12.50;58.10
40534;DHT22;26233;51.894;10.192;2022-12-26T03:25:53;12.50;58.10
40534;DHT22;26233;51.894;10.192;2022-12-26T03:28:40;12.50;58.10
40534;DHT22;26233;51.894;10.192;2022-12-26T03:31:09;12.50;58.10
40534;DHT22;26233;51.894;10.192;2022-12-26T03:33:39;12.50;58.10
40534;DHT22;26233;51.894;10.192;2022-12-26T03:36:34;12.50;58.10
40534;DHT22;26233;51.894;10.192;2022-12-26T03:39:13;12.50;58.10
40534;DHT22;26233;51.894;10.192;2022-12-26T03:41:51;12.50;58.10
40534;DHT22;26233;51.894;10.192;2022-12-26T03:44:45;12.50;58.10
40534;DHT22;26233;51.894;10.192;2022-12-26T03:47:37;12.60;58.20
40534;DHT22;26233;51.894;10.192;2022-12-26T03:50:30;12.50;58.10
40534;DHT22;26233;51.894;10.192;2022-12-26T03:53:20;12.50;58.20
40534;DHT22;26233;51.894;10.192;2022-12-26T03:56:07;12.60;58.20
40534;DHT22;26233;51.894;10.192;2022-12-26T03:59:07;12.60;58.20
40534;DHT22;26233;51.894;10.192;2022-12-26T04:01:55;12.60;58.20
40534;DHT22;26233;51.894;10.192;2022-12-26T04:04:45;12.50;58.10
40534;DHT22;26233;51.894;10.192;2022-12-26T04:07:32;12.50;58.20
40534;DHT22;26233;51.894;10.192;2022-12-26T04:10:23;12.60;58.30
40534;DHT22;26233;51.894;10.192;2022-12-26T04:13:16;12.60;58.30
40534;DHT22;26233;51.894;10.192;2022-12-26T04:16:07;12.50;58.40
40534;DHT22;26233;51.894;10.192;2022-12-26T04:19:02;12.60;58.50
40534;DHT22;26233;51.894;10.192;2022-12-26T04:21:54;12.60;58.50
40534;DHT22;26233;51.894;10.192;2022-12-26T04:24:49;12.60;58.50
40534;DHT22;26233;51.894;10.192;2022-12-26T04:27:38;12.60;58.50
40534;DHT22;26233;51.894;10.192;2022-12-26T04:30:23;12.60;58.50
40534;DHT22;26233;51.894;10.192;2022-12-26T04:33:11;12.60;58.50
40534;DHT22;26233;51.894;10.192;2022-12-26T04:36:03;12.60;58.50
40534;DHT22;26233;51.894;10.192;2022-12-26T04:38:55;12.60;58.50
40534;DHT22;26233;51.894;10.192;2022-12-26T04:41:44;12.60;58.60
40534;DHT22;26233;51.894;10.192;2022-12-26T04:44:32;12.60;58.60
40534;DHT22;26233;51.894;10.192;2022-12-26T04:46:59;12.60;58.60
40534;DHT22;26233;51.894;10.192;2022-12-26T04:49:26;12.60;58.60
40534;DHT22;26233;51.894;10.192;2022-12-26T04:52:12;12.60;58.60
40534;DHT22;26233;51.894;10.192;2022-12-26T04:54:40;12.60;58.60
40534;DHT22;26233;51.894;10.192;2022-12-26T04:57:07;12.60;58.60
40534;DHT22;26233;51.894;10.192;2022-12-26T04:59:37;12.60;58.60
40534;DHT22;26233;51.894;10.192;2022-12-26T05:02:04;12.60;58.60
40534;DHT22;26233;51.894;10.192;2022-12-26T05:04:49;12.60;58.60
40534;DHT22;26233;51.894;10.192;2022-12-26T05:07:35;12.60;58.60
40534;DHT22;26233;51.894;10.192;2022-12-26T05:10:22;12.60;58.60
40534;DHT22;26233;51.894;10.192;2022-12-26T05:12:52;12.60;58.60
40534;DHT22;26233;51.894;10.192;2022-12-26T05:15:22;12.60;58.60
40534;DHT22;26233;51.894;10.192;2022-12-26T05:17:49;12.60;58.70
40534;DHT22;26233;51.894;10.192;2022-12-26T05:20:34;12.60;58.70
40534;DHT22;26233;51.894;10.192;2022-12-26T05:23:27;12.60;58.70
40534;DHT22;26233;51.894;10.192;2022-12-26T05:26:15;12.60;58.70
40534;DHT22;26233;51.894;10.192;2022-12-26T05:29:01;12.60;58.70
40534;DHT22;26233;51.894;10.192;2022-12-26T05:31:30;12.70;58.80
40534;DHT22;26233;51.894;10.192;2022-12-26T05:33:57;12.60;58.70
40534;DHT22;26233;51.894;10.192;2022-12-26T05:36:35;12.70;58.80
40534;DHT22;26233;51.894;10.192;2022-12-26T05:39:04;12.70;58.80
40534;DHT22;26233;51.894;10.192;2022-12-26T05:41:32;12.70;58.70
40534;DHT22;26233;51.894;10.192;2022-12-26T05:43:59;12.70;58.70
40534;DHT22;26233;51.894;10.192;2022-12-26T05:46:26;12.70;58.70
40534;DHT22;26233;51.894;10.192;2022-12-26T05:48:55;12.70;58.70
40534;DHT22;26233;51.894;10.192;2022-12-26T05:51:22;12.70;58.70
40534;DHT22;26233;51.894;10.192;2022-12-26T05:53:50;12.70;58.70
40534;DHT22;26233;51.894;10.192;2022-12-26T05:56:18;12.70;58.70
40534;DHT22;26233;51.894;10.192;2022-12-26T05:58:46;12.70;58.70
40534;DHT22;26233;51.894;10.192;2022-12-26T06:01:15;12.70;58.70
40534;DHT22;26233;51.894;10.192;2022-12-26T06:03:46;12.60;58.60
40534;DHT22;26233;51.894;10.192;2022-12-26T06:06:16;12.70;58.70
40534;DHT22;26233;51.894;10.192;2022-12-26T06:08:47;12.70;58.80
40534;DHT22;26233;51.894;10.192;2022-12-26T06:11:18;12.60;58.70
40534;DHT22;26233;51.894;10.192;2022-12-26T06:13:46;12.60;58.60
40534;DHT22;26233;51.894;10.192;2022-12-26T06:16:15;12.60;58.60
40534;DHT22;26233;51.894;10.192;2022-12-26T06:18:44;12.60;58.70
40534;DHT22;26233;51.894;10.192;2022-12-26T06:21:14;12.60;58.70
40534;DHT22;26233;51.894;10.192;2022-12-26T06:23:44;12.60;58.70
40534;DHT22;26233;51.894;10.192;2022-12-26T06:26:11;12.60;58.70
40534;DHT22;26233;51.894;10.192;2022-12-26T06:28:39;12.70;58.80
40534;DHT22;26233;51.894;10.192;2022-12-26T06:31:11;12.60;58.70
40534;DHT22;26233;51.894;10.192;2022-12-26T06:33:40;12.60;58.70
40534;DHT22;26233;51.894;10.192;2022-12-26T06:36:09;12.60;58.70
40534;DHT22;26233;51.894;10.192;2022-12-26T06:38:40;12.60;58.70
40534;DHT22;26233;51.894;10.192;2022-12-26T06:41:09;12.60;58.70
40534;DHT22;26233;51.894;10.192;2022-12-26T06:43:38;12.60;58.70
40534;DHT22;26233;51.894;10.192;2022-12-26T06:46:06;12.60;58.70
40534;DHT22;26233;51.894;10.192;2022-12-26T06:48:34;12.60;58.70
40534;DHT22;26233;51.894;10.192;2022-12-26T06:51:04;12.70;58.80
40534;DHT22;26233;51.894;10.192;2022-12-26T06:53:32;12.60;58.70
40534;DHT22;26233;51.894;10.192;2022-12-26T06:56:06;12.70;58.70
40534;DHT22;26233;51.894;10.192;2022-12-26T06:58:34;12.60;58.70
40534;DHT22;26233;51.894;10.192;2022-12-26T07:01:04;12.70;58.70
40534;DHT22;26233;51.894;10.192;2022-12-26T07:03:32;12.60;58.60
40534;DHT22;26233;51.894;10.192;2022-12-26T07:06:02;12.60;58.60
40534;DHT22;26233;51.894;10.192;2022-12-26T07:08:30;12.60;58.60
40534;DHT22;26233;51.894;10.192;2022-12-26T07:10:57;12.60;58.60
40534;DHT22;26233;51.894;10.192;2022-12-26T07:13:26;12.60;58.60
40534;DHT22;26233;51.894;10.192;2022-12-26T07:15:53;12.60;58.60
40534;DHT22;26233;51.894;10.192;2022-12-26T07:18:20;12.60;58.60
40534;DHT22;26233;51.894;10.192;2022-12-26T07:20:47;12.60;58.50
40534;DHT22;26233;51.894;10.192;2022-12-26T07:23:14;12.60;58.50
40534;DHT22;26233;51.894;10.192;2022-12-26T07:25:41;12.60;58.50
40534;DHT22;26233;51.894;10.192;2022-12-26T07:28:08;12.60;58.50
40534;DHT22;26233;51.894;10.192;2022-12-26T07:30:36;12.60;58.50
40534;DHT22;26233;51.894;10.192;2022-12-26T07:33:06;12.60;58.40
40534;DHT22;26233;51.894;10.192;2022-12-26T07:35:33;12.70;58.50
40534;DHT22;26233;51.894;10.192;2022-12-26T07:38:03;12.50;58.30
40534;DHT22;26233;51.894;10.192;2022-12-26T07:40:30;12.50;58.30
40534;DHT22;26233;51.894;10.192;2022-12-26T07:42:57;12.50;58.30
40534;DHT22;26233;51.894;10.192;2022-12-26T07:45:24;12.50;58.80
40534;DHT22;26233;51.894;10.192;2022-12-26T07:47:53;12.50;58.30
40534;DHT22;26233;51.894;10.192;2022-12-26T07:50:25;12.50;58.20
40534;DHT22;26233;51.894;10.192;2022-12-26T07:52:52;12.50;58.20
40534;DHT22;26233;51.894;10.192;2022-12-26T07:55:20;12.50;58.20
40534;DHT22;26233;51.894;10.192;2022-12-26T07:57:49;12.60;58.30
40534;DHT22;26233;51.894;10.192;2022-12-26T08:00:18;12.50;58.20
40534;DHT22;26233;51.894;10.192;2022-12-26T08:02:46;12.50;58.20
40534;DHT22;26233;51.894;10.192;2022-12-26T08:05:17;12.50;58.20
40534;DHT22;26233;51.894;10.192;2022-12-26T08:07:45;12.50;58.40
40534;DHT22;26233;51.894;10.192;2022-12-26T08:10:13;12.50;58.20
40534;DHT22;26233;51.894;10.192;2022-12-26T08:12:40;12.50;58.20
40534;DHT22;26233;51.894;10.192;2022-12-26T08:15:08;12.50;58.20
40534;DHT22;26233;51.894;10.192;2022-12-26T08:17:38;12.50;58.20
40534;DHT22;26233;51.894;10.192;2022-12-26T08:20:07;12.60;58.30
40534;DHT22;26233;51.894;10.192;2022-12-26T08:22:36;12.50;58.20
40534;DHT22;26233;51.894;10.192;2022-12-26T08:25:04;12.50;58.10
40534;DHT22;26233;51.894;10.192;2022-12-26T08:27:32;12.60;58.20
40534;DHT22;26233;51.894;10.192;2022-12-26T08:30:00;12.50;58.00
40534;DHT22;26233;51.894;10.192;2022-12-26T08:32:27;12.50;58.00
40534;DHT22;26233;51.894;10.192;2022-12-26T08:34:56;12.50;58.00
40534;DHT22;26233;51.894;10.192;2022-12-26T08:37:24;12.50;58.00
40534;DHT22;26233;51.894;10.192;2022-12-26T08:39:52;12.50;58.00
40534;DHT22;26233;51.894;10.192;2022-12-26T08:42:19;12.50;57.90
40534;DHT22;26233;51.894;10.192;2022-12-26T08:44:47;12.50;58.00
40534;DHT22;26233;51.894;10.192;2022-12-26T08:47:14;12.50;58.00
40534;DHT22;26233;51.894;10.192;2022-12-26T08:49:41;12.40;57.90
40534;DHT22;26233;51.894;10.192;2022-12-26T08:52:08;12.50;58.00
40534;DHT22;26233;51.894;10.192;2022-12-26T08:54:37;12.50;58.00
40534;DHT22;26233;51.894;10.192;2022-12-26T08:57:05;12.40;57.90
40534;DHT22;26233;51.894;10.192;2022-12-26T08:59:32;12.50;58.00
40534;DHT22;26233;51.894;10.192;2022-12-26T09:01:59;12.50;58.00
40534;DHT22;26233;51.894;10.192;2022-12-26T09:04:26;12.50;58.50
40534;DHT22;26233;51.894;10.192;2022-12-26T09:06:53;12.50;57.90
40534;DHT22;26233;51.894;10.192;2022-12-26T09:09:20;12.50;57.80
40534;DHT22;26233;51.894;10.192;2022-12-26T09:11:47;12.50;57.80
40534;DHT22;26233;51.894;10.192;2022-12-26T09:14:16;12.50;57.80
40534;DHT22;26233;51.894;10.192;2022-12-26T09:16:43;12.50;57.80
40534;DHT22;26233;51.894;10.192;2022-12-26T09:19:12;12.50;57.70
40534;DHT22;26233;51.894;10.192;2022-12-26T09:21:41;12.50;57.70
40534;DHT22;26233;51.894;10.192;2022-12-26T09:24:11;12.50;57.60
40534;DHT22;26233;51.894;10.192;2022-12-26T09:26:39;12.50;57.50
40534;DHT22;26233;51.894;10.192;2022-12-26T09:29:06;12.50;57.60
40534;DHT22;26233;51.894;10.192;2022-12-26T09:31:36;12.40;57.40
40534;DHT22;26233;51.894;10.192;2022-12-26T09:34:04;12.40;57.40
40534;DHT22;26233;51.894;10.192;2022-12-26T09:36:36;12.40;57.50
40534;DHT22;26233;51.894;10.192;2022-12-26T09:39:04;12.40;57.40
40534;DHT22;26233;51.894;10.192;2022-12-26T09:41:50;12.40;57.40
40534;DHT22;26233;51.894;10.192;2022-12-26T09:44:38;12.40;57.30
40534;DHT22;26233;51.894;10.192;2022-12-26T09:47:27;12.40;57.50
40534;DHT22;26233;51.894;10.192;2022-12-26T09:50:00;12.40;57.40
40534;DHT22;26233;51.894;10.192;2022-12-26T09:52:38;12.40;57.40
40534;DHT22;26233;51.894;10.192;2022-12-26T09:55:28;12.40;57.30
40534;DHT22;26233;51.894;10.192;2022-12-26T09:58:14;12.40;57.20
40534;DHT22;26233;51.894;10.192;2022-12-26T10:00:50;12.40;57.20
40534;DHT22;26233;51.894;10.192;2022-12-26T10:03:20;12.40;57.30
40534;DHT22;26233;51.894;10.192;2022-12-26T10:05:59;12.40;57.30
40534;DHT22;26233;51.894;10.192;2022-12-26T10:08:43;12.40;57.10
40534;DHT22;26233;51.894;10.192;2022-12-26T10:11:22;12.40;57.20
40534;DHT22;26233;51.894;10.192;2022-12-26T10:13:56;12.40;57.30
40534;DHT22;26233;51.894;10.192;2022-12-26T10:16:37;12.40;57.20
40534;DHT22;26233;51.894;10.192;2022-12-26T10:19:26;12.40;57.10
40534;DHT22;26233;51.894;10.192;2022-12-26T10:22:08;12.40;57.20
40534;DHT22;26233;51.894;10.192;2022-12-26T10:24:47;12.40;57.20
40534;DHT22;26233;51.894;10.192;2022-12-26T10:27:17;12.50;58.00
40534;DHT22;26233;51.894;10.192;2022-12-26T10:29:48;12.50;57.20
40534;DHT22;26233;51.894;10.192;2022-12-26T10:32:21;12.50;57.10
40534;DHT22;26233;51.894;10.192;2022-12-26T10:34:53;12.50;57.10
40534;DHT22;26233;51.894;10.192;2022-12-26T10:37:23;12.50;57.10
40534;DHT22;26233;51.894;10.192;2022-12-26T10:39:55;12.50;57.10
40534;DHT22;26233;51.894;10.192;2022-12-26T10:42:26;12.50;57.10
40534;DHT22;26233;51.894;10.192;2022-12-26T10:44:56;12.50;57.00
40534;DHT22;26233;51.894;10.192;2022-12-26T10:47:29;12.50;57.00
40534;DHT22;26233;51.894;10.192;2022-12-26T10:50:01;12.60;56.90
40534;DHT22;26233;51.894;10.192;2022-12-26T10:52:31;12.60;57.00
40534;DHT22;26233;51.894;10.192;2022-12-26T10:55:00;12.60;57.10
40534;DHT22;26233;51.894;10.192;2022-12-26T10:57:31;12.60;57.20
40534;DHT22;26233;51.894;10.192;2022-12-26T11:00:06;12.60;57.00
40534;DHT22;26233;51.894;10.192;2022-12-26T11:02:40;12.60;57.00
40534;DHT22;26233;51.894;10.192;2022-12-26T11:05:11;12.70;57.10
40534;DHT22;26233;51.894;10.192;2022-12-26T11:07:51;12.70;57.00
40534;DHT22;26233;51.894;10.192;2022-12-26T11:10:23;12.70;56.70
40534;DHT22;26233;51.894;10.192;2022-12-26T11:12:53;12.70;56.90
40534;DHT22;26233;51.894;10.192;2022-12-26T11:15:27;12.70;56.80
40534;DHT22;26233;51.894;10.192;2022-12-26T11:18:07;12.70;56.70
40534;DHT22;26233;51.894;10.192;2022-12-26T11:20:43;12.70;56.60
40534;DHT22;26233;51.894;10.192;2022-12-26T11:23:23;12.70;56.70
40534;DHT22;26233;51.894;10.192;2022-12-26T11:25:53;12.70;56.50
40534;DHT22;26233;51.894;10.192;2022-12-26T11:28:30;12.70;56.70
40534;DHT22;26233;51.894;10.192;2022-12-26T11:30:59;12.70;57.20
40534;DHT22;26233;51.894;10.192;2022-12-26T11:33:29;12.70;56.80
40534;DHT22;26233;51.894;10.192;2022-12-26T11:36:15;12.70;56.70
40534;DHT22;26233;51.894;10.192;2022-12-26T11:38:50;12.70;56.50
40534;DHT22;26233;51.894;10.192;2022-12-26T11:41:34;12.70;56.70
40534;DHT22;26233;51.894;10.192;2022-12-26T11:44:19;12.70;56.60
40534;DHT22;26233;51.894;10.192;2022-12-26T11:46:54;12.70;56.40
40534;DHT22;26233;51.894;10.192;2022-12-26T11:49:28;12.70;56.80
40534;DHT22;26233;51.894;10.192;2022-12-26T11:52:00;12.80;56.90
40534;DHT22;26233;51.894;10.192;2022-12-26T11:54:32;12.80;56.80
40534;DHT22;26233;51.894;10.192;2022-12-26T11:59:45;12.80;56.80
40534;DHT22;26233;51.894;10.192;2022-12-26T12:02:27;12.90;56.90
40534;DHT22;26233;51.894;10.192;2022-12-26T12:04:59;12.90;56.70
40534;DHT22;26233;51.894;10.192;2022-12-26T12:07:50;12.90;56.80
40534;DHT22;26233;51.894;10.192;2022-12-26T12:10:50;12.90;56.70
40534;DHT22;26233;51.894;10.192;2022-12-26T12:14:12;12.90;56.40
40534;DHT22;26233;51.894;10.192;2022-12-26T12:16:52;12.90;56.50
40534;DHT22;26233;51.894;10.192;2022-12-26T12:19:32;12.90;56.60
40534;DHT22;26233;51.894;10.192;2022-12-26T12:25:24;12.90;56.70
40534;DHT22;26233;51.894;10.192;2022-12-26T12:28:01;12.90;56.70
40534;DHT22;26233;51.894;10.192;2022-12-26T12:30:41;12.90;56.60
40534;DHT22;26233;51.894;10.192;2022-12-26T12:33:23;12.90;56.50
40534;DHT22;26233;51.894;10.192;2022-12-26T12:36:06;12.90;56.30
40534;DHT22;26233;51.894;10.192;2022-12-26T12:38:43;12.90;56.00
40534;DHT22;26233;51.894;10.192;2022-12-26T12:44:20;12.90;55.90
40534;DHT22;26233;51.894;10.192;2022-12-26T12:46:56;12.90;55.80
40534;DHT22;26233;51.894;10.192;2022-12-26T12:49:44;12.90;55.90
40534;DHT22;26233;51.894;10.192;2022-12-26T12:52:24;12.90;55.70
40534;DHT22;26233;51.894;10.192;2022-12-26T12:55:15;12.90;55.70
40534;DHT22;26233;51.894;10.192;2022-12-26T12:57:51;12.90;55.50
40534;DHT22;26233;51.894;10.192;2022-12-26T13:00:20;12.90;55.60
40534;DHT22;26233;51.894;10.192;2022-12-26T13:02:53;12.90;55.60
40534;DHT22;26233;51.894;10.192;2022-12-26T13:05:31;12.90;55.50
40534;DHT22;26233;51.894;10.192;2022-12-26T13:08:08;12.90;55.20
40534;DHT22;26233;51.894;10.192;2022-12-26T13:10:46;12.90;56.00
40534;DHT22;26233;51.894;10.192;2022-12-26T13:13:23;12.90;55.00
40534;DHT22;26233;51.894;10.192;2022-12-26T13:15:55;13.00;55.40
40534;DHT22;26233;51.894;10.192;2022-12-26T13:18:28;13.00;55.80
40534;DHT22;26233;51.894;10.192;2022-12-26T13:21:03;13.20;56.30
40534;DHT22;26233;51.894;10.192;2022-12-26T13:23:35;13.30;56.50
40534;DHT22;26233;51.894;10.192;2022-12-26T13:26:25;13.40;56.60
40534;DHT22;26233;51.894;10.192;2022-12-26T13:29:01;13.60;56.30
40534;DHT22;26233;51.894;10.192;2022-12-26T13:31:35;13.70;55.50
40534;DHT22;26233;51.894;10.192;2022-12-26T13:34:04;13.80;55.10
40534;DHT22;26233;51.894;10.192;2022-12-26T13:36:37;13.80;54.90
40534;DHT22;26233;51.894;10.192;2022-12-26T13:39:23;13.80;54.50
40534;DHT22;26233;51.894;10.192;2022-12-26T13:42:31;13.80;53.60
40534;DHT22;26233;51.894;10.192;2022-12-26T13:48:55;13.60;53.30
40534;DHT22;26233;51.894;10.192;2022-12-26T13:51:53;13.50;53.30
40534;DHT22;26233;51.894;10.192;2022-12-26T13:54:26;13.50;53.40
40534;DHT22;26233;51.894;10.192;2022-12-26T13:57:13;13.40;53.80
40534;DHT22;26233;51.894;10.192;2022-12-26T14:00:14;13.30;53.20
40534;DHT22;26233;51.894;10.192;2022-12-26T14:03:14;13.30;53.60
40534;DHT22;26233;51.894;10.192;2022-12-26T14:06:36;13.20;53.30
40534;DHT22;26233;51.894;10.192;2022-12-26T14:09:40;13.20;53.40
40534;DHT22;26233;51.894;10.192;2022-12-26T14:12:29;13.10;53.50
40534;DHT22;26233;51.894;10.192;2022-12-26T14:15:20;13.10;53.50
40534;DHT22;26233;51.894;10.192;2022-12-26T14:18:03;13.00;53.50
40534;DHT22;26233;51.894;10.192;2022-12-26T14:20:43;13.00;53.60
40534;DHT22;26233;51.894;10.192;2022-12-26T14:23:25;13.00;53.60
40534;DHT22;26233;51.894;10.192;2022-12-26T14:26:02;12.90;53.40
40534;DHT22;26233;51.894;10.192;2022-12-26T14:28:53;12.90;53.70
40534;DHT22;26233;51.894;10.192;2022-12-26T14:31:29;12.90;53.50
40534;DHT22;26233;51.894;10.192;2022-12-26T14:34:14;12.80;53.70
40534;DHT22;26233;51.894;10.192;2022-12-26T14:36:51;12.80;53.50
40534;DHT22;26233;51.894;10.192;2022-12-26T14:39:30;12.80;53.80
40534;DHT22;26233;51.894;10.192;2022-12-26T14:42:16;12.70;53.70
40534;DHT22;26233;51.894;10.192;2022-12-26T14:45:10;12.70;53.50
40534;DHT22;26233;51.894;10.192;2022-12-26T14:47:42;12.60;53.80
40534;DHT22;26233;51.894;10.192;2022-12-26T14:50:36;12.60;53.90
40534;DHT22;26233;51.894;10.192;2022-12-26T14:53:30;12.60;53.70
40534;DHT22;26233;51.894;10.192;2022-12-26T14:56:00;12.60;53.90
40534;DHT22;26233;51.894;10.192;2022-12-26T14:58:37;12.60;54.10
40534;DHT22;26233;51.894;10.192;2022-12-26T15:04:43;12.60;53.90
40534;DHT22;26233;51.894;10.192;2022-12-26T15:07:42;12.60;54.00
40534;DHT22;26233;51.894;10.192;2022-12-26T15:14:04;12.60;54.00
40534;DHT22;26233;51.894;10.192;2022-12-26T15:16:58;12.50;54.00
40534;DHT22;26233;51.894;10.192;2022-12-26T15:23:22;12.50;54.60
40534;DHT22;26233;51.894;10.192;2022-12-26T15:26:14;12.50;54.10
40534;DHT22;26233;51.894;10.192;2022-12-26T15:29:18;12.50;54.20
40534;DHT22;26233;51.894;10.192;2022-12-26T15:32:07;12.50;54.20
40534;DHT22;26233;51.894;10.192;2022-12-26T15:34:44;12.60;53.80
40534;DHT22;26233;51.894;10.192;2022-12-26T15:37:32;12.50;54.10
40534;DHT22;26233;51.894;10.192;2022-12-26T15:40:14;12.40;53.50
40534;DHT22;26233;51.894;10.192;2022-12-26T15:42:54;12.30;53.20
40534;DHT22;26233;51.894;10.192;2022-12-26T15:45:46;12.20;53.20
40534;DHT22;26233;51.894;10.192;2022-12-26T15:48:29;12.00;53.00
40534;DHT22;26233;51.894;10.192;2022-12-26T15:51:06;11.90;53.00
40534;DHT22;26233;51.894;10.192;2022-12-26T15:53:51;11.80;53.20
40534;DHT22;26233;51.894;10.192;2022-12-26T15:56:47;11.60;53.20
40534;DHT22;26233;51.894;10.192;2022-12-26T15:59:39;11.50;53.90
40534;DHT22;26233;51.894;10.192;2022-12-26T16:02:32;11.40;53.50
40534;DHT22;26233;51.894;10.192;2022-12-26T16:05:27;11.30;53.50
40534;DHT22;26233;51.894;10.192;2022-12-26T16:08:25;11.20;53.70
40534;DHT22;26233;51.894;10.192;2022-12-26T16:11:18;11.20;53.70
40534;DHT22;26233;51.894;10.192;2022-12-26T16:13:55;11.10;53.80
40534;DHT22;26233;51.894;10.192;2022-12-26T16:16:32;11.10;53.60
40534;DHT22;26233;51.894;10.192;2022-12-26T16:19:17;11.00;53.60
40534;DHT22;26233;51.894;10.192;2022-12-26T16:21:47;11.00;53.50
40534;DHT22;26233;51.894;10.192;2022-12-26T16:24:34;11.00;53.70
40534;DHT22;26233;51.894;10.192;2022-12-26T16:27:05;10.90;53.70
40534;DHT22;26233;51.894;10.192;2022-12-26T16:29:39;10.90;53.80
40534;DHT22;26233;51.894;10.192;2022-12-26T16:32:16;10.90;53.80
40534;DHT22;26233;51.894;10.192;2022-12-26T16:34:45;10.90;53.70
40534;DHT22;26233;51.894;10.192;2022-12-26T16:37:17;10.90;53.70
40534;DHT22;26233;51.894;10.192;2022-12-26T16:40:11;10.80;53.50